Time;durP1;ratioP1;P1;durP2;ratioP2;P2;SDS_P1;SDS_P2;PMS_P1;PMS_P2;Temp;Humidity;BMP_temperature;BMP_pressure;BME280_temperature;BME280_humidity;BME280_pressure;Samples;Min_cycle;Max_cycle;Signal;HPM_P1;HPM_P2
2020/12/02 00:01:31;;;;;;;30.40;16.10;;;3.20;79.60;;;;;;5019977;28;20058;-66
2020/12/02 00:04:06;;;;;;;33.45;17.52;;;3.20;79.70;;;;;;5022000;28;20041;-66
2020/12/02 00:06:32;;;;;;;36.30;17.58;;;3.10;79.80;;;;;;5022019;28;20038;-66
2020/12/02 00:08:59;;;;;;;32.97;16.95;;;2.90;80.30;;;;;;4989984;28;20217;-65
2020/12/02 00:11:28;;;;;;;33.38;16.48;;;2.80;80.60;;;;;;5008243;28;20030;-65
2020/12/02 00:13:56;;;;;;;35.28;16.92;;;2.90;81.00;;;;;;5022644;28;20283;-66
2020/12/02 00:16:25;;;;;;;35.13;16.77;;;3.00;80.30;;;;;;5020704;28;20049;-66
2020/12/02 00:18:51;;;;;;;30.48;16.25;;;2.90;80.50;;;;;;5022047;28;20374;-66
2020/12/02 00:21:18;;;;;;;33.47;16.75;;;3.00;80.70;;;;;;5021220;28;20042;-65
2020/12/02 00:23:44;;;;;;;35.00;17.55;;;2.90;80.50;;;;;;5025027;28;20034;-66
2020/12/02 00:26:09;;;;;;;35.95;18.42;;;2.90;80.60;;;;;;5021020;28;20104;-66
2020/12/02 00:28:35;;;;;;;38.25;18.50;;;2.80;80.80;;;;;;5022761;28;20056;-66
2020/12/02 00:31:01;;;;;;;35.47;17.60;;;2.80;81.00;;;;;;5020646;28;20065;-66
2020/12/02 00:33:26;;;;;;;35.53;17.63;;;2.80;81.40;;;;;;5021843;28;20034;-66
2020/12/02 00:35:52;;;;;;;38.47;18.13;;;2.80;81.10;;;;;;5002672;28;20044;-65
2020/12/02 00:38:18;;;;;;;37.65;18.15;;;2.90;81.20;;;;;;5024614;28;20040;-66
2020/12/02 00:40:44;;;;;;;35.08;17.63;;;2.90;81.00;;;;;;5020365;28;20337;-66
2020/12/02 00:43:11;;;;;;;36.53;18.80;;;3.00;80.80;;;;;;5022443;28;20041;-65
2020/12/02 00:45:37;;;;;;;38.33;19.10;;;3.10;80.40;;;;;;5022498;28;20034;-66
2020/12/02 00:48:02;;;;;;;39.28;18.92;;;3.10;80.40;;;;;;5022079;28;20049;-65
2020/12/02 00:50:28;;;;;;;36.00;19.10;;;3.10;80.30;;;;;;5007523;28;20018;-66
2020/12/02 00:52:58;;;;;;;38.95;19.75;;;3.00;80.50;;;;;;5022122;28;20038;-66
2020/12/02 00:55:24;;;;;;;32.58;17.83;;;3.10;80.30;;;;;;5022232;28;20041;-66
2020/12/02 00:57:49;;;;;;;33.17;17.90;;;2.90;78.90;;;;;;5022307;28;20205;-65
2020/12/02 01:00:15;;;;;;;34.92;18.75;;;3.00;79.10;;;;;;5004094;28;20037;-65
2020/12/02 01:02:57;;;;;;;31.55;17.77;;;3.00;78.30;;;;;;4991386;28;20030;-66
2020/12/02 01:05:23;;;;;;;30.63;17.58;;;2.90;78.40;;;;;;4989322;28;20064;-66
2020/12/02 01:07:49;;;;;;;34.17;18.70;;;2.80;78.90;;;;;;5022012;28;20349;-65
2020/12/02 01:10:14;;;;;;;33.72;18.63;;;2.80;79.10;;;;;;5021678;28;20282;-65
2020/12/02 01:12:44;;;;;;;33.50;18.85;;;2.90;78.60;;;;;;5037264;28;20265;-65
2020/12/02 01:15:11;;;;;;;35.22;18.83;;;2.90;78.70;;;;;;5020520;28;20030;-65
2020/12/02 01:17:37;;;;;;;36.15;20.02;;;2.90;78.80;;;;;;5023985;28;20050;-66
2020/12/02 01:20:09;;;;;;;38.45;19.92;;;2.90;78.60;;;;;;5021370;28;20100;-65
2020/12/02 01:22:43;;;;;;;38.47;19.48;;;2.90;78.90;;;;;;5001852;28;20072;-65
2020/12/02 01:25:20;;;;;;;37.35;20.80;;;2.90;78.20;;;;;;5010120;28;20043;-65
2020/12/02 01:27:56;;;;;;;34.75;19.83;;;2.90;78.20;;;;;;5000959;28;20222;-66
2020/12/02 01:30:22;;;;;;;35.22;19.60;;;2.90;78.40;;;;;;5003742;28;20355;-65
2020/12/02 01:32:48;;;;;;;37.30;20.27;;;3.00;78.30;;;;;;5023043;28;20030;-66
2020/12/02 01:35:17;;;;;;;38.92;20.63;;;2.90;78.30;;;;;;5021336;28;20089;-66
2020/12/02 01:37:42;;;;;;;40.90;21.55;;;2.90;78.00;;;;;;5021074;28;20206;-66
2020/12/02 01:40:22;;;;;;;47.67;24.25;;;2.90;77.80;;;;;;5019171;28;20061;-66
2020/12/02 01:42:55;;;;;;;45.70;23.58;;;2.80;77.90;;;;;;5017476;28;20229;-66
2020/12/02 01:45:25;;;;;;;46.15;23.83;;;2.70;77.80;;;;;;5018525;28;20048;-66
2020/12/02 01:48:17;;;;;;;46.25;24.85;;;2.60;77.50;;;;;;5024020;28;20317;-65
2020/12/02 01:50:50;;;;;;;47.63;24.90;;;2.60;77.70;;;;;;5022563;28;20329;-66
2020/12/02 01:53:27;;;;;;;47.72;24.17;;;2.50;78.30;;;;;;5018639;28;20038;-65
2020/12/02 01:55:57;;;;;;;46.63;23.63;;;2.50;78.30;;;;;;5002478;28;20038;-66
2020/12/02 01:58:31;;;;;;;49.58;24.65;;;2.40;77.90;;;;;;5002776;28;20069;-66
2020/12/02 02:01:01;;;;;;;51.10;25.92;;;2.20;78.60;;;;;;5019800;28;20064;-66
2020/12/02 02:03:27;;;;;;;57.27;27.27;;;2.20;78.80;;;;;;5023125;28;20064;-65
2020/12/02 02:06:00;;;;;;;54.28;25.85;;;2.20;78.80;;;;;;5002403;28;20112;-65
2020/12/02 02:08:29;;;;;;;53.00;26.63;;;2.30;79.00;;;;;;5005387;28;20146;-66
2020/12/02 02:10:55;;;;;;;52.60;25.73;;;2.40;78.50;;;;;;5023776;28;20232;-65
2020/12/02 02:13:28;;;;;;;54.78;28.10;;;2.30;78.80;;;;;;5023612;28;20329;-65
2020/12/02 02:16:20;;;;;;;55.30;27.20;;;2.10;78.80;;;;;;5006415;28;20262;-65
2020/12/02 02:18:46;;;;;;;55.95;26.17;;;2.20;79.10;;;;;;5022979;28;20044;-65
2020/12/02 02:21:14;;;;;;;49.45;24.80;;;2.20;79.00;;;;;;5027687;28;20077;-65
2020/12/02 02:23:40;;;;;;;46.00;24.65;;;2.10;78.90;;;;;;5023888;28;20041;-65
2020/12/02 02:26:15;;;;;;;46.95;24.85;;;2.20;79.20;;;;;;5037331;28;20257;-66
2020/12/02 02:29:10;;;;;;;45.30;23.52;;;2.00;78.80;;;;;;5025060;28;20097;-66
2020/12/02 02:31:49;;;;;;;45.63;22.35;;;2.00;78.10;;;;;;5010726;28;20360;-65
2020/12/02 02:34:15;;;;;;;45.92;22.92;;;2.20;78.40;;;;;;5022053;28;20061;-65
2020/12/02 02:36:40;;;;;;;44.13;22.52;;;2.10;77.50;;;;;;5025810;28;20026;-66
2020/12/02 02:39:06;;;;;;;39.13;21.50;;;2.10;78.00;;;;;;5023212;28;20030;-66
2020/12/02 02:41:33;;;;;;;41.53;21.77;;;2.00;77.90;;;;;;5024160;28;20042;-65
2020/12/02 02:43:58;;;;;;;42.83;21.70;;;1.80;78.20;;;;;;5023732;28;20286;-65
2020/12/02 02:46:24;;;;;;;49.72;23.63;;;1.90;78.20;;;;;;5023602;28;20041;-65
2020/12/02 02:48:49;;;;;;;44.08;22.73;;;1.90;78.00;;;;;;5026801;28;20042;-66
2020/12/02 02:51:15;;;;;;;44.33;24.02;;;1.90;77.80;;;;;;5022502;28;20030;-65
2020/12/02 02:53:40;;;;;;;43.10;22.33;;;2.00;77.30;;;;;;5024380;28;20132;-66
2020/12/02 02:56:06;;;;;;;43.88;21.40;;;1.90;76.90;;;;;;5024364;28;20101;-66
2020/12/02 02:58:32;;;;;;;42.15;22.00;;;1.70;76.80;;;;;;5024155;28;20037;-65
2020/12/02 03:01:00;;;;;;;49.05;23.52;;;1.70;77.10;;;;;;5023535;28;20060;-64
2020/12/02 03:03:28;;;;;;;45.28;22.50;;;1.50;77.00;;;;;;5021613;28;20053;-66
2020/12/02 03:05:54;;;;;;;43.10;21.98;;;1.40;77.40;;;;;;5022479;28;20038;-65
2020/12/02 03:08:19;;;;;;;45.10;21.95;;;1.60;77.40;;;;;;5024788;28;20042;-65
2020/12/02 03:10:45;;;;;;;47.85;23.42;;;1.60;77.90;;;;;;5021013;28;20238;-65
2020/12/02 03:13:21;;;;;;;41.10;21.55;;;1.70;77.60;;;;;;5019738;28;20241;-65
2020/12/02 03:15:46;;;;;;;44.03;22.33;;;1.70;77.10;;;;;;5025301;28;20021;-65
2020/12/02 03:18:13;;;;;;;43.13;21.77;;;1.60;77.20;;;;;;5023942;28;20212;-65
2020/12/02 03:20:41;;;;;;;41.45;21.67;;;1.70;76.90;;;;;;5006288;28;20057;-66
2020/12/02 03:23:11;;;;;;;45.03;22.23;;;1.60;76.50;;;;;;5021092;28;20075;-66
2020/12/02 03:25:36;;;;;;;44.47;21.73;;;1.70;77.00;;;;;;5022217;28;20030;-65
2020/12/02 03:28:02;;;;;;;47.97;22.60;;;1.60;77.10;;;;;;5025302;28;20367;-66
2020/12/02 03:30:28;;;;;;;47.17;22.13;;;1.70;77.30;;;;;;5023918;28;20042;-66
2020/12/02 03:32:54;;;;;;;46.38;22.77;;;1.80;76.70;;;;;;4995884;28;20041;-65
2020/12/02 03:35:19;;;;;;;44.20;21.80;;;1.50;76.70;;;;;;5020953;28;20084;-65
2020/12/02 03:37:45;;;;;;;51.20;23.35;;;1.70;76.30;;;;;;5022096;28;20038;-66
2020/12/02 03:40:11;;;;;;;49.30;23.20;;;1.60;76.40;;;;;;5025024;28;20034;-66
2020/12/02 03:42:36;;;;;;;52.95;23.98;;;1.40;76.90;;;;;;5022776;28;20220;-65
2020/12/02 03:45:04;;;;;;;53.65;25.25;;;1.50;76.40;;;;;;5020756;28;20088;-65
2020/12/02 03:47:30;;;;;;;54.92;26.60;;;1.10;76.90;;;;;;5037871;28;20033;-65
2020/12/02 03:49:56;;;;;;;55.63;25.88;;;1.00;77.50;;;;;;5018384;28;20294;-65
2020/12/02 03:52:21;;;;;;;58.92;28.27;;;1.10;77.60;;;;;;5003673;28;20038;-65
2020/12/02 03:54:47;;;;;;;57.92;26.88;;;1.10;77.10;;;;;;5006245;28;20254;-65
2020/12/02 03:57:12;;;;;;;56.25;26.58;;;1.00;77.20;;;;;;5003425;28;20050;-65
2020/12/02 03:59:38;;;;;;;55.00;25.92;;;1.10;77.40;;;;;;5018894;28;20280;-66
2020/12/02 04:02:03;;;;;;;55.15;25.25;;;0.90;77.30;;;;;;5003470;28;20042;-65
2020/12/02 04:04:30;;;;;;;55.15;26.25;;;0.90;78.30;;;;;;5004194;28;20030;-65
2020/12/02 04:06:55;;;;;;;53.42;26.17;;;1.10;77.70;;;;;;4991789;28;20021;-65
2020/12/02 04:09:21;;;;;;;56.70;26.10;;;0.90;77.60;;;;;;5023395;28;20041;-65
2020/12/02 04:11:46;;;;;;;57.08;26.35;;;0.80;78.10;;;;;;5022546;28;20034;-66
2020/12/02 04:14:12;;;;;;;54.83;26.30;;;1.00;77.90;;;;;;5022600;28;20336;-65
2020/12/02 04:16:38;;;;;;;51.50;25.58;;;1.20;78.00;;;;;;5002688;28;20034;-65
2020/12/02 04:19:04;;;;;;;48.63;23.88;;;1.20;77.30;;;;;;5005484;28;20221;-66
2020/12/02 04:21:29;;;;;;;54.35;26.45;;;1.00;76.60;;;;;;5020677;28;20049;-65
2020/12/02 04:23:55;;;;;;;52.25;25.58;;;1.00;76.90;;;;;;5021338;28;20041;-65
2020/12/02 04:26:21;;;;;;;55.08;26.17;;;0.90;77.40;;;;;;5021910;28;20076;-65
2020/12/02 04:28:47;;;;;;;59.03;26.85;;;0.90;77.10;;;;;;5022415;28;20030;-65
2020/12/02 04:31:12;;;;;;;56.78;26.05;;;0.80;77.70;;;;;;5024451;28;20034;-65
2020/12/02 04:33:38;;;;;;;59.92;27.08;;;0.80;77.40;;;;;;5021840;28;20333;-65
2020/12/02 04:36:04;;;;;;;62.70;27.63;;;0.80;78.20;;;;;;5037642;28;20056;-65
2020/12/02 04:38:30;;;;;;;62.20;27.25;;;0.70;77.90;;;;;;5022627;28;20264;-65
2020/12/02 04:40:55;;;;;;;56.35;27.02;;;0.90;77.80;;;;;;5003444;28;20100;-65
2020/12/02 04:43:30;;;;;;;60.15;26.83;;;1.00;77.60;;;;;;5022136;28;20038;-64
2020/12/02 04:45:55;;;;;;;58.35;26.45;;;1.00;78.00;;;;;;5007901;28;20034;-65
2020/12/02 04:48:27;;;;;;;57.17;25.00;;;1.10;77.80;;;;;;5021554;28;20123;-65
2020/12/02 04:50:59;;;;;;;;;;;1.10;77.20;;;;;;5005309;28;20333;-63
2020/12/02 04:53:24;;;;;;;57.03;25.60;;;0.90;77.60;;;;;;5021232;28;19905;-63
2020/12/02 04:55:52;;;;;;;58.55;25.02;;;0.90;77.10;;;;;;5021878;28;20077;-63
2020/12/02 04:58:30;;;;;;;61.95;26.80;;;0.80;77.40;;;;;;5024830;28;20185;-63
2020/12/02 05:01:25;;;;;;;62.28;26.27;;;0.70;77.80;;;;;;5021518;28;20041;-63
2020/12/02 05:04:39;;;;;;;69.30;27.88;;;0.70;78.10;;;;;;5022506;28;20053;-63
2020/12/02 05:07:05;;;;;;;67.22;26.33;;;0.60;78.00;;;;;;4989257;28;20040;-61
2020/12/02 05:09:35;;;;;;;67.22;27.40;;;0.60;78.60;;;;;;5021579;28;20229;-61
2020/12/02 05:12:12;;;;;;;66.63;27.02;;;0.50;78.70;;;;;;5020219;28;20264;-61
2020/12/02 05:14:38;;;;;;;63.45;26.33;;;0.50;79.10;;;;;;5021255;28;20045;-61
2020/12/02 05:17:16;;;;;;;68.00;27.33;;;0.70;79.20;;;;;;5018759;28;20033;-61
2020/12/02 05:19:42;;;;;;;64.50;25.58;;;0.80;78.70;;;;;;5020270;28;20313;-62
2020/12/02 05:22:12;;;;;;;66.70;26.27;;;0.80;78.70;;;;;;5024338;28;20030;-61
2020/12/02 05:24:46;;;;;;;72.30;28.67;;;0.60;78.50;;;;;;5019034;28;20034;-60
2020/12/02 05:27:14;;;;;;;63.20;26.38;;;0.90;78.80;;;;;;5019863;28;20040;-61
2020/12/02 05:29:47;;;;;;;63.80;26.17;;;0.70;78.80;;;;;;5019088;28;20053;-60
2020/12/02 05:32:24;;;;;;;55.42;23.75;;;0.50;78.60;;;;;;5021787;28;20030;-61
2020/12/02 05:34:50;;;;;;;60.88;24.25;;;0.60;78.30;;;;;;5021287;28;20057;-61
2020/12/02 05:37:42;;;;;;;56.42;23.63;;;0.60;77.90;;;;;;5024581;28;20026;-60
2020/12/02 05:40:11;;;;;;;51.45;23.98;;;0.50;77.80;;;;;;5016504;28;20321;-61
2020/12/02 05:42:42;;;;;;;54.75;22.90;;;0.50;77.90;;;;;;5006901;28;20209;-61
2020/12/02 05:45:18;;;;;;;53.20;23.02;;;0.60;77.90;;;;;;5024573;28;20145;-60
2020/12/02 05:47:45;;;;;;;51.63;22.20;;;0.40;76.60;;;;;;5024688;28;20034;-60
2020/12/02 05:50:13;;;;;;;54.53;22.13;;;0.40;77.10;;;;;;5021740;28;20040;-61
2020/12/02 05:52:39;;;;;;;50.53;22.17;;;0.40;77.00;;;;;;5027824;28;20206;-61
2020/12/02 05:55:21;;;;;;;50.95;22.80;;;0.60;76.60;;;;;;5024025;28;20057;-61
2020/12/02 05:58:03;;;;;;;50.33;22.13;;;0.80;76.40;;;;;;5024125;28;20329;-61
2020/12/02 06:00:29;;;;;;;52.92;21.85;;;0.60;76.10;;;;;;5024295;28;20045;-61
2020/12/02 06:02:56;;;;;;;53.75;22.80;;;0.70;75.50;;;;;;5025698;28;20030;-61
2020/12/02 06:05:21;;;;;;;51.42;22.77;;;0.70;76.00;;;;;;5022252;28;20037;-61
2020/12/02 06:07:49;;;;;;;57.72;24.23;;;0.70;75.80;;;;;;5026381;28;20361;-61
2020/12/02 06:10:16;;;;;;;58.15;25.50;;;0.70;76.10;;;;;;5025536;28;20049;-60
2020/12/02 06:12:42;;;;;;;57.50;26.77;;;0.40;75.80;;;;;;5024729;28;20061;-61
2020/12/02 06:15:16;;;;;;;56.53;24.33;;;0.50;76.50;;;;;;5023938;28;20049;-61
2020/12/02 06:17:41;;;;;;;57.55;24.70;;;0.50;76.20;;;;;;5023601;28;20214;-61
2020/12/02 06:20:07;;;;;;;57.30;25.48;;;0.50;75.80;;;;;;5024754;28;20069;-61
2020/12/02 06:22:45;;;;;;;58.17;24.58;;;0.50;75.80;;;;;;5009825;28;20034;-61
2020/12/02 06:25:46;;;;;;;55.38;24.15;;;0.40;76.00;;;;;;4991068;28;20321;-61
2020/12/02 06:28:14;;;;;;;54.90;24.17;;;0.50;75.80;;;;;;5014993;28;20034;-61
2020/12/02 06:30:39;;;;;;;59.95;24.63;;;0.50;76.10;;;;;;5035562;28;20068;-61
2020/12/02 06:33:13;;;;;;;57.90;25.55;;;0.50;76.00;;;;;;5004848;28;20037;-61
2020/12/02 06:35:39;;;;;;;59.50;25.60;;;0.50;76.20;;;;;;5022033;28;20049;-61
2020/12/02 06:38:23;;;;;;;64.80;26.15;;;0.40;74.60;;;;;;5027054;28;20038;-64
2020/12/02 06:40:58;;;;;;;65.50;28.02;;;0.20;75.90;;;;;;5024200;28;20101;-64
2020/12/02 06:43:24;;;;;;;62.03;27.08;;;0.30;76.60;;;;;;5024274;28;20262;-64
2020/12/02 06:45:49;;;;;;;67.25;26.90;;;0.50;75.80;;;;;;5024176;28;20257;-63
2020/12/02 06:48:24;;;;;;;64.38;27.73;;;0.50;75.60;;;;;;5023569;28;20141;-63
2020/12/02 06:50:49;;;;;;;65.55;27.80;;;0.50;75.30;;;;;;5024587;28;20096;-63
2020/12/02 06:53:19;;;;;;;66.30;28.42;;;0.30;75.90;;;;;;5023649;28;20029;-63
2020/12/02 06:55:45;;;;;;;64.13;27.60;;;0.00;76.80;;;;;;5026947;28;20025;-64
2020/12/02 06:58:13;;;;;;;66.20;27.75;;;0.20;76.80;;;;;;5022965;28;20042;-64
2020/12/02 07:00:47;;;;;;;63.83;28.20;;;0.20;76.20;;;;;;5023663;28;20044;-65
2020/12/02 07:03:44;;;;;;;66.80;27.90;;;0.40;76.60;;;;;;5024197;28;20257;-64
2020/12/02 07:06:24;;;;;;;65.30;28.38;;;0.40;76.60;;;;;;5024204;28;20034;-63
2020/12/02 07:09:10;;;;;;;55.00;24.08;;;0.30;76.30;;;;;;5023041;28;20040;-63
2020/12/02 07:11:35;;;;;;;60.95;25.65;;;0.20;76.10;;;;;;5022882;28;20026;-64
2020/12/02 07:14:21;;;;;;;58.92;25.23;;;0.20;75.90;;;;;;5008756;28;20246;-63
2020/12/02 07:16:46;;;;;;;50.53;22.52;;;0.30;75.40;;;;;;5024138;28;20080;-63
2020/12/02 07:19:14;;;;;;;53.28;22.55;;;0.10;76.40;;;;;;5023976;28;20264;-63
2020/12/02 07:21:53;;;;;;;52.67;23.73;;;0.20;76.50;;;;;;5022906;28;20117;-63
2020/12/02 07:24:21;;;;;;;54.53;24.20;;;0.20;76.60;;;;;;5007649;28;20038;-63
2020/12/02 07:26:47;;;;;;;51.85;22.80;;;0.40;76.30;;;;;;5022259;28;20359;-64
2020/12/02 07:29:23;;;;;;;56.35;23.52;;;0.50;76.20;;;;;;5023463;28;20057;-63
2020/12/02 07:31:59;;;;;;;50.15;22.40;;;0.60;75.50;;;;;;5026264;28;20205;-64
2020/12/02 07:34:25;;;;;;;51.10;21.95;;;0.70;75.60;;;;;;5036438;28;20072;-65
2020/12/02 07:37:00;;;;;;;57.30;24.25;;;0.60;75.10;;;;;;5037100;28;20061;-65
2020/12/02 07:39:27;;;;;;;53.65;22.67;;;0.60;74.80;;;;;;4985737;28;20046;-64
2020/12/02 07:41:54;;;;;;;57.63;23.20;;;0.50;75.30;;;;;;5022208;28;20038;-64
2020/12/02 07:44:19;;;;;;;49.85;22.25;;;0.70;75.00;;;;;;5022654;28;20034;-66
2020/12/02 07:46:48;;;;;;;45.42;20.85;;;0.70;75.00;;;;;;5025965;28;20340;-64
2020/12/02 07:49:14;;;;;;;50.00;22.27;;;0.70;74.60;;;;;;5021669;28;20046;-65
2020/12/02 07:51:59;;;;;;;48.38;20.48;;;0.90;74.20;;;;;;5021300;28;20117;-65
2020/12/02 07:54:25;;;;;;;47.85;20.95;;;0.90;73.90;;;;;;5003802;28;20337;-65
2020/12/02 07:56:51;;;;;;;51.28;22.88;;;0.90;74.10;;;;;;5020343;28;21402;-64
2020/12/02 07:59:21;;;;;;;48.15;21.17;;;0.90;74.80;;;;;;5008456;28;20034;-65
2020/12/02 08:02:10;;;;;;;57.67;24.70;;;0.80;74.50;;;;;;5020945;28;20128;-65
2020/12/02 08:04:53;;;;;;;54.90;23.08;;;0.80;74.80;;;;;;5015949;28;20072;-64
2020/12/02 08:07:19;;;;;;;55.28;23.77;;;0.70;75.10;;;;;;5020887;28;20377;-65
2020/12/02 08:09:47;;;;;;;54.20;24.33;;;0.60;75.40;;;;;;5022636;28;20037;-65
2020/12/02 08:12:18;;;;;;;56.60;24.20;;;0.70;75.70;;;;;;5022196;28;20026;-65
2020/12/02 08:14:47;;;;;;;55.50;23.25;;;0.80;75.70;;;;;;5025511;28;20056;-64
2020/12/02 08:17:14;;;;;;;57.97;24.65;;;0.90;75.60;;;;;;5021581;28;20045;-64
2020/12/02 08:19:42;;;;;;;54.60;24.52;;;0.90;75.40;;;;;;5019163;28;20029;-64
2020/12/02 08:22:27;;;;;;;57.42;23.83;;;0.90;75.40;;;;;;5021948;28;20026;-66
2020/12/02 08:25:19;;;;;;;62.65;24.52;;;1.10;75.10;;;;;;5021505;28;20325;-65
2020/12/02 08:27:49;;;;;;;56.22;23.42;;;1.00;75.30;;;;;;5007603;28;20041;-64
2020/12/02 08:30:18;;;;;;;56.13;23.90;;;1.20;75.40;;;;;;5005382;28;20105;-64
2020/12/02 08:33:10;;;;;;;51.45;23.40;;;1.00;74.60;;;;;;5024837;28;20029;-64
2020/12/02 08:36:06;;;;;;;52.38;23.35;;;0.90;74.60;;;;;;5006311;28;20068;-64
2020/12/02 08:38:35;;;;;;;51.20;22.95;;;0.80;75.00;;;;;;5002876;28;20076;-64
2020/12/02 08:41:01;;;;;;;51.30;22.08;;;0.80;75.20;;;;;;5021320;28;20034;-64
2020/12/02 08:43:36;;;;;;;49.15;22.13;;;0.70;75.60;;;;;;5019074;28;20309;-64
2020/12/02 08:46:12;;;;;;;52.08;21.52;;;0.90;75.30;;;;;;5020844;28;20052;-64
2020/12/02 08:48:39;;;;;;;52.67;22.50;;;0.90;75.00;;;;;;5021030;28;20037;-64
2020/12/02 08:51:15;;;;;;;52.28;22.70;;;0.90;75.00;;;;;;5023811;28;20040;-67
2020/12/02 08:53:41;;;;;;;47.63;21.90;;;0.90;75.00;;;;;;4958611;28;20134;-64
2020/12/02 08:56:21;;;;;;;45.10;19.85;;;1.00;74.80;;;;;;4999339;28;20046;-62
2020/12/02 08:58:46;;;;;;;42.25;19.27;;;1.10;74.30;;;;;;4985224;28;20341;-64
2020/12/02 09:01:12;;;;;;;41.83;19.08;;;0.90;74.20;;;;;;5010715;28;20042;-63
2020/12/02 09:03:37;;;;;;;41.95;19.17;;;0.90;73.80;;;;;;5016939;28;20105;-62
2020/12/02 09:06:03;;;;;;;47.65;19.88;;;0.90;74.10;;;;;;5005002;28;20028;-63
2020/12/02 09:08:28;;;;;;;42.70;18.80;;;1.00;73.90;;;;;;5002132;28;20046;-63
2020/12/02 09:10:54;;;;;;;37.78;17.25;;;1.20;73.80;;;;;;5001058;28;20064;-64
2020/12/02 09:13:19;;;;;;;35.38;15.98;;;1.10;73.50;;;;;;5010777;28;20030;-62
2020/12/02 09:15:46;;;;;;;35.78;15.40;;;1.20;73.10;;;;;;5020173;28;20038;-63
2020/12/02 09:18:11;;;;;;;35.22;16.48;;;1.40;73.30;;;;;;5020308;28;20026;-63
2020/12/02 09:20:37;;;;;;;34.80;16.90;;;1.30;72.70;;;;;;5024051;28;20064;-63
2020/12/02 09:23:02;;;;;;;37.85;16.27;;;1.30;72.30;;;;;;5017749;28;20034;-64
2020/12/02 09:25:28;;;;;;;36.05;17.40;;;1.20;72.40;;;;;;5019875;28;20036;-64
2020/12/02 09:27:54;;;;;;;39.38;16.50;;;1.10;72.30;;;;;;5021614;28;20029;-64
2020/12/02 09:30:19;;;;;;;34.10;15.90;;;1.10;72.80;;;;;;5021399;28;20037;-65
2020/12/02 09:32:45;;;;;;;33.67;15.98;;;1.10;73.10;;;;;;5024032;28;20049;-64
2020/12/02 09:35:11;;;;;;;38.20;16.77;;;1.20;72.40;;;;;;4985273;28;20329;-64
2020/12/02 09:37:37;;;;;;;35.55;15.68;;;1.10;72.60;;;;;;5020419;28;20035;-64
2020/12/02 09:40:11;;;;;;;33.28;16.75;;;1.00;72.80;;;;;;5019250;28;20104;-64
2020/12/02 09:43:01;;;;;;;36.03;15.50;;;1.20;72.30;;;;;;5019841;28;20030;-64
2020/12/02 09:45:33;;;;;;;33.20;14.48;;;1.10;72.30;;;;;;5006109;28;20030;-65
2020/12/02 09:47:59;;;;;;;;;;;1.20;71.70;;;;;;5024431;28;20124;-64
2020/12/02 09:50:26;;;;;;;38.35;16.17;;;1.00;72.50;;;;;;5021179;28;19912;-64
2020/12/02 09:52:51;;;;;;;38.10;16.88;;;1.10;72.40;;;;;;5014993;28;20054;-63
2020/12/02 09:55:22;;;;;;;37.65;16.58;;;1.00;72.50;;;;;;5015547;28;20038;-64
2020/12/02 09:57:48;;;;;;;39.53;16.45;;;1.10;72.80;;;;;;5001292;28;20038;-64
2020/12/02 10:00:14;;;;;;;36.10;16.55;;;1.00;72.80;;;;;;5004517;28;20035;-64
2020/12/02 10:03:18;;;;;;;37.00;16.88;;;1.10;73.30;;;;;;5000893;28;20110;-63
2020/12/02 10:06:06;;;;;;;35.58;16.08;;;1.00;72.60;;;;;;5002014;28;20114;-64
2020/12/02 10:08:44;;;;;;;37.78;16.20;;;1.10;72.60;;;;;;5000729;28;20081;-63
2020/12/02 10:11:34;;;;;;;34.90;15.73;;;1.20;72.00;;;;;;5015084;28;20045;-64
2020/12/02 10:14:30;;;;;;;37.72;16.27;;;1.10;72.20;;;;;;5018356;28;20049;-63
2020/12/02 10:17:17;;;;;;;35.28;16.10;;;1.20;72.00;;;;;;5020988;28;20214;-61
2020/12/02 10:20:03;;;;;;;39.80;17.67;;;1.10;72.40;;;;;;5020403;28;20865;-61
2020/12/02 10:22:41;;;;;;;37.35;18.33;;;1.30;72.80;;;;;;5020314;28;20093;-62
2020/12/02 10:25:39;;;;;;;43.22;19.08;;;1.20;72.20;;;;;;5019750;28;20064;-63
2020/12/02 10:28:17;;;;;;;39.33;19.73;;;1.00;72.90;;;;;;5020703;28;20029;-63
2020/12/02 10:31:11;;;;;;;41.15;18.70;;;1.20;72.60;;;;;;5022830;28;20064;-63
2020/12/02 10:34:00;;;;;;;40.10;18.83;;;1.30;72.70;;;;;;5025679;28;20114;-63
2020/12/02 10:36:32;;;;;;;40.10;18.63;;;1.30;72.20;;;;;;5025719;28;20034;-64
2020/12/02 10:38:59;;;;;;;39.83;18.58;;;1.30;72.30;;;;;;5024840;28;20065;-64
2020/12/02 10:41:27;;;;;;;44.40;19.10;;;1.50;72.30;;;;;;5024866;28;20042;-64
2020/12/02 10:44:07;;;;;;;39.88;19.58;;;1.50;71.80;;;;;;5022627;28;20069;-64
2020/12/02 10:46:52;;;;;;;39.72;18.58;;;1.50;72.10;;;;;;5024767;28;20320;-64
2020/12/02 10:49:27;;;;;;;39.38;18.55;;;1.70;72.80;;;;;;5021657;28;20093;-65
2020/12/02 10:51:54;;;;;;;42.25;18.60;;;1.90;71.90;;;;;;5023993;28;20331;-65
2020/12/02 10:54:19;;;;;;;39.08;19.65;;;1.70;71.80;;;;;;5006044;28;20038;-65
2020/12/02 10:56:45;;;;;;;40.92;19.65;;;1.50;71.20;;;;;;5001858;28;20046;-64
2020/12/02 10:59:12;;;;;;;39.45;18.55;;;1.40;71.80;;;;;;4989291;28;20099;-61
2020/12/02 11:01:39;;;;;;;40.20;18.73;;;1.50;71.50;;;;;;5022049;28;20269;-62
2020/12/02 11:04:06;;;;;;;41.70;19.35;;;1.60;71.80;;;;;;5022140;28;20038;-62
2020/12/02 11:06:35;;;;;;;37.55;17.23;;;1.40;71.60;;;;;;5025365;28;20025;-61
2020/12/02 11:09:14;;;;;;;38.95;17.67;;;1.50;71.60;;;;;;5023120;28;20348;-62
2020/12/02 11:11:58;;;;;;;38.42;18.50;;;1.50;71.20;;;;;;5006990;28;20081;-62
2020/12/02 11:14:52;;;;;;;41.95;19.92;;;1.40;71.40;;;;;;5001928;28;20109;-61
2020/12/02 11:17:40;;;;;;;41.72;20.05;;;1.50;71.40;;;;;;5014272;28;20038;-61
2020/12/02 11:20:12;;;;;;;42.83;19.85;;;1.80;71.60;;;;;;5023915;28;20345;-61
2020/12/02 11:22:39;;;;;;;42.55;19.70;;;1.60;71.20;;;;;;5022421;28;20030;-61
2020/12/02 11:25:11;;;;;;;46.35;21.52;;;1.40;71.60;;;;;;5021595;28;20037;-61
2020/12/02 11:27:37;;;;;;;44.40;21.27;;;1.40;71.80;;;;;;5005682;28;20030;-61
2020/12/02 11:30:05;;;;;;;41.88;19.95;;;1.60;72.00;;;;;;5015657;28;20030;-61
2020/12/02 11:32:58;;;;;;;45.13;20.92;;;1.70;71.60;;;;;;5022100;28;20045;-61
2020/12/02 11:35:51;;;;;;;45.45;20.38;;;1.60;71.60;;;;;;5023702;28;20034;-61
2020/12/02 11:38:25;;;;;;;42.63;20.58;;;1.70;70.60;;;;;;5021487;28;20262;-61
2020/12/02 11:41:22;;;;;;;47.05;20.38;;;1.70;71.30;;;;;;5023255;28;20230;-61
2020/12/02 11:43:49;;;;;;;41.90;20.15;;;1.90;70.50;;;;;;5023529;28;20038;-61
2020/12/02 11:46:17;;;;;;;45.67;21.25;;;1.80;70.90;;;;;;5024491;28;20329;-61
2020/12/02 11:49:16;;;;;;;44.42;20.73;;;1.60;71.40;;;;;;5019328;28;20033;-62
2020/12/02 11:51:57;;;;;;;45.53;21.75;;;1.60;70.70;;;;;;5020487;28;20057;-61
2020/12/02 11:54:22;;;;;;;45.95;21.42;;;1.70;71.20;;;;;;5006538;28;20053;-61
2020/12/02 11:56:51;;;;;;;51.90;22.27;;;1.70;71.00;;;;;;5002646;28;20221;-62
2020/12/02 11:59:28;;;;;;;46.40;21.45;;;1.70;71.00;;;;;;5022975;28;20329;-62
2020/12/02 12:01:54;;;;;;;48.38;22.58;;;1.60;71.10;;;;;;5012794;28;20038;-61
2020/12/02 12:04:35;;;;;;;53.78;23.30;;;1.70;71.80;;;;;;5025857;28;20079;-62
2020/12/02 12:07:19;;;;;;;45.58;22.27;;;1.70;71.50;;;;;;5023656;28;20034;-61
2020/12/02 12:10:00;;;;;;;47.88;22.65;;;1.60;70.60;;;;;;5022504;28;20042;-61
2020/12/02 12:12:56;;;;;;;45.90;22.83;;;1.40;70.60;;;;;;5004673;28;20038;-62
2020/12/02 12:15:41;;;;;;;43.35;21.38;;;1.40;70.90;;;;;;5022624;28;20034;-61
2020/12/02 12:18:22;;;;;;;49.28;22.92;;;1.30;70.80;;;;;;5022737;28;20357;-61
2020/12/02 12:20:53;;;;;;;43.55;21.35;;;1.40;70.90;;;;;;5019186;28;20045;-61
2020/12/02 12:23:36;;;;;;;45.03;22.13;;;1.50;70.90;;;;;;5021649;28;20079;-61
2020/12/02 12:26:02;;;;;;;44.33;22.02;;;1.30;70.00;;;;;;5006903;28;20338;-62
2020/12/02 12:28:29;;;;;;;46.50;22.13;;;1.30;70.20;;;;;;5008146;28;20049;-61
2020/12/02 12:30:58;;;;;;;42.78;21.92;;;0.90;70.20;;;;;;5023448;28;20054;-61
2020/12/02 12:33:30;;;;;;;44.67;21.77;;;0.90;70.10;;;;;;4981788;28;20340;-62
2020/12/02 12:36:02;;;;;;;41.78;20.48;;;1.00;70.30;;;;;;5021286;28;20061;-63
2020/12/02 12:38:35;;;;;;;40.78;20.67;;;1.00;69.90;;;;;;5021274;28;20229;-63
2020/12/02 12:41:24;;;;;;;45.55;21.38;;;0.90;70.00;;;;;;5019773;28;20045;-63
2020/12/02 12:44:00;;;;;;;41.97;21.33;;;0.60;70.70;;;;;;5021328;28;20042;-63
2020/12/02 12:46:35;;;;;;;42.25;21.08;;;0.40;71.00;;;;;;5023645;28;20113;-63
2020/12/02 12:49:01;;;;;;;42.20;20.02;;;0.50;71.20;;;;;;4960524;28;20202;-63
2020/12/02 12:51:27;;;;;;;42.35;20.73;;;0.50;71.10;;;;;;4970818;28;20048;-63
2020/12/02 12:53:52;;;;;;;41.65;20.67;;;0.50;71.50;;;;;;5021527;28;20045;-63
2020/12/02 12:56:18;;;;;;;44.50;22.42;;;0.50;70.90;;;;;;5022150;28;20034;-63
2020/12/02 12:58:43;;;;;;;46.60;21.50;;;0.30;71.50;;;;;;5005028;28;20034;-64
2020/12/02 13:01:09;;;;;;;42.42;20.83;;;0.30;71.90;;;;;;5006989;28;20076;-64